createdAt,value
2016-11-17T00:00:49.576Z,6.76
2016-11-17T00:01:59.557Z,6.9
2016-11-17T00:03:09.529Z,6.79
2016-11-17T00:04:19.831Z,6.79
2016-11-17T00:05:30.188Z,6.82
2016-11-17T00:06:40.494Z,6.78
2016-11-17T00:07:50.178Z,6.78
2016-11-17T00:09:03.344Z,6.83
2016-11-17T00:10:13.891Z,6.86
2016-11-17T00:11:23.570Z,6.9
2016-11-17T00:12:33.877Z,6.95
2016-11-17T00:13:44.183Z,6.91
2016-11-17T00:14:54.482Z,6.97
2016-11-17T00:16:04.764Z,6.98
2016-11-17T00:17:15.050Z,6.93
2016-11-17T00:18:25.341Z,7.08
2016-11-17T00:19:35.629Z,6.98
2016-11-17T00:20:45.630Z,7.03
2016-11-17T00:21:55.939Z,7
2016-11-17T00:23:05.912Z,6.97
2016-11-17T00:24:16.217Z,7
2016-11-17T00:25:26.212Z,6.95
2016-11-17T00:26:36.209Z,6.97
2016-11-17T00:27:46.502Z,7
2016-11-17T00:28:56.213Z,6.94
2016-11-17T00:30:06.188Z,6.93
2016-11-17T00:31:16.490Z,6.91
2016-11-17T00:32:26.466Z,6.98
2016-11-17T00:33:36.793Z,6.93
2016-11-17T00:34:46.774Z,6.93
2016-11-17T00:35:56.760Z,6.94
2016-11-17T00:37:07.035Z,6.88
2016-11-17T00:38:17.323Z,6.95
2016-11-17T00:39:26.707Z,6.88
2016-11-17T00:40:37.034Z,6.86
2016-11-17T00:41:47.409Z,6.98
2016-11-17T00:42:57.463Z,7.01
2016-11-17T00:44:07.754Z,6.88
2016-11-17T00:45:17.750Z,6.9
2016-11-17T00:46:27.437Z,6.95
2016-11-17T00:47:37.712Z,6.9
2016-11-17T00:48:47.676Z,7.01
2016-11-17T00:49:57.656Z,7
2016-11-17T00:51:07.929Z,7
2016-11-17T00:52:17.955Z,7.01
2016-11-17T00:53:28.233Z,7.05
2016-11-17T00:54:38.203Z,7.05
2016-11-17T00:55:48.479Z,7.05
2016-11-17T00:56:58.802Z,6.97
2016-11-17T00:58:09.083Z,6.95
2016-11-17T00:59:19.404Z,7.04
2016-11-17T01:00:29.671Z,7
2016-11-17T01:01:39.952Z,7.01
2016-11-17T01:02:49.916Z,6.98
2016-11-17T01:03:59.891Z,6.97
2016-11-17T01:05:10.179Z,6.98
2016-11-17T01:06:20.435Z,6.95
2016-11-17T01:07:30.446Z,6.95
2016-11-17T01:08:40.725Z,6.98
2016-11-17T01:09:50.699Z,6.97
2016-11-17T01:11:00.679Z,6.9
2016-11-17T01:12:10.653Z,6.86
2016-11-17T01:13:20.936Z,6.91
2016-11-17T01:14:31.252Z,6.91
2016-11-17T01:15:41.523Z,6.86
2016-11-17T01:16:51.806Z,6.98
2016-11-17T01:18:01.786Z,7.03
2016-11-17T01:19:12.063Z,6.98
2016-11-17T01:20:22.034Z,7.01
2016-11-17T01:21:32.020Z,6.9
2016-11-17T01:22:42.299Z,6.97
2016-11-17T01:23:52.574Z,7.04
2016-11-17T01:25:02.221Z,6.94
2016-11-17T01:26:12.193Z,7.01
2016-11-17T01:27:22.170Z,6.93
2016-11-17T01:28:32.480Z,6.94
2016-11-17T01:29:42.447Z,6.97
2016-11-17T01:30:52.719Z,7
2016-11-17T01:32:02.690Z,7.03
2016-11-17T01:33:13.020Z,7.05
2016-11-17T01:34:22.682Z,7.04
2016-11-17T01:35:32.691Z,6.98
2016-11-17T01:36:42.968Z,7.04
2016-11-17T01:37:52.950Z,7.04
2016-11-17T01:39:02.921Z,7.05
2016-11-17T01:40:13.184Z,7.11
2016-11-17T01:41:23.179Z,7.12
2016-11-17T01:42:33.451Z,7.08
2016-11-17T01:43:43.737Z,7.01
2016-11-17T01:44:53.760Z,7.03
2016-11-17T01:46:04.042Z,7
2016-11-17T01:47:14.064Z,7.11
2016-11-17T01:48:24.346Z,7.04
2016-11-17T01:49:34.633Z,7.04
2016-11-17T01:50:44.303Z,7.05
2016-11-17T01:51:54.610Z,7.11
2016-11-17T01:53:04.901Z,7.05
2016-11-17T01:54:15.224Z,7.11
2016-11-17T01:55:25.496Z,7.01
2016-11-17T01:56:35.495Z,7.01
2016-11-17T01:57:45.463Z,7.05
2016-11-17T01:58:55.766Z,7.04
2016-11-17T02:00:06.055Z,6.98
2016-11-17T02:01:16.347Z,7.01
2016-11-17T02:02:26.628Z,7.03
2016-11-17T02:03:36.907Z,6.94
2016-11-17T02:04:46.884Z,6.98
2016-11-17T02:05:56.860Z,6.86
2016-11-17T02:07:07.151Z,6.94
2016-11-17T02:08:16.867Z,7.03
2016-11-17T02:09:27.145Z,6.98
2016-11-17T02:10:37.461Z,7.01
2016-11-17T02:11:47.748Z,6.93
2016-11-17T02:12:58.034Z,6.94
2016-11-17T02:14:08.320Z,6.82
2016-11-17T02:15:17.678Z,6.88
2016-11-17T02:16:27.654Z,6.9
2016-11-17T02:17:37.011Z,6.85
2016-11-17T02:18:47.282Z,6.79
2016-11-17T02:19:57.550Z,6.83
2016-11-17T02:21:07.839Z,6.82
2016-11-17T02:22:17.510Z,6.79
2016-11-17T02:23:27.476Z,6.9
2016-11-17T02:24:37.439Z,6.91
2016-11-17T02:25:47.456Z,6.82
2016-11-17T02:26:57.428Z,6.78
2016-11-17T02:28:07.722Z,6.83
2016-11-17T02:29:17.698Z,6.8
2016-11-17T02:30:27.965Z,6.91
2016-11-17T02:31:37.643Z,6.85
2016-11-17T02:32:46.677Z,6.79
2016-11-17T02:33:56.641Z,6.82
2016-11-17T02:35:06.612Z,6.8
2016-11-17T02:36:16.302Z,6.8
2016-11-17T02:37:26.265Z,6.94
2016-11-17T02:38:36.571Z,6.98
2016-11-17T02:39:46.843Z,6.97
2016-11-17T02:40:56.820Z,7.03
2016-11-17T02:42:06.793Z,6.98
2016-11-17T02:43:17.077Z,7
2016-11-17T02:44:26.745Z,6.95
2016-11-17T02:45:36.097Z,6.9
2016-11-17T02:46:46.395Z,6.9
2016-11-17T02:47:56.673Z,6.88
2016-11-17T02:49:06.945Z,6.9
2016-11-17T02:50:16.616Z,7
2016-11-17T02:51:26.614Z,6.9
2016-11-17T02:52:36.578Z,6.9
2016-11-17T02:53:46.537Z,6.9
2016-11-17T02:54:56.499Z,6.82
2016-11-17T02:56:06.461Z,6.86
2016-11-17T02:57:16.732Z,6.8
2016-11-17T02:58:27.024Z,6.82
2016-11-17T02:59:37.335Z,6.8
2016-11-17T03:00:47.333Z,6.9
2016-11-17T03:32:43.353Z,4.28
2016-11-17T03:33:53.613Z,4.28
2016-11-17T03:35:02.955Z,4.35
2016-11-17T03:36:13.227Z,4.32
2016-11-17T03:37:23.497Z,4.51
2016-11-17T03:38:33.516Z,4.48
2016-11-17T03:39:43.805Z,4.72
2016-11-17T03:40:53.798Z,4.87
2016-11-17T03:42:03.772Z,4.88
2016-11-17T03:43:13.738Z,5.12
2016-11-17T03:44:23.404Z,5.37
2016-11-17T03:45:33.371Z,5.36
2016-11-17T03:46:43.649Z,5.64
2016-11-17T03:47:53.310Z,5.64
2016-11-17T03:49:03.634Z,5.84
2016-11-17T03:50:13.599Z,5.99
2016-11-17T03:51:23.884Z,6
2016-11-17T03:52:33.847Z,6.18
2016-11-17T03:53:43.845Z,6.15
2016-11-17T03:54:54.150Z,6.33
2016-11-17T03:56:04.168Z,6.31
2016-11-17T03:57:14.475Z,6.43
2016-11-17T03:58:24.131Z,6.54
2016-11-17T03:59:34.417Z,6.49
2016-11-17T04:00:44.375Z,6.72
2016-11-17T04:01:54.356Z,6.75
2016-11-17T04:03:04.643Z,6.83
2016-11-17T04:04:14.920Z,6.91
2016-11-17T04:05:24.896Z,6.91
2016-11-17T04:06:35.170Z,7.01
2016-11-17T04:07:45.151Z,7.13
2016-11-17T04:08:55.107Z,7.11
2016-11-17T04:10:05.075Z,7.08
2016-11-17T04:11:15.346Z,7.15
2016-11-17T04:12:25.321Z,7.21
2016-11-17T04:13:35.329Z,7.21
2016-11-17T04:14:45.605Z,7.26
2016-11-17T04:15:55.897Z,7.27
2016-11-17T04:17:05.873Z,7.26
2016-11-17T04:18:15.835Z,7.18
2016-11-17T04:19:25.182Z,7.22
2016-11-17T04:20:34.841Z,7.19
2016-11-17T04:21:45.121Z,7.16
2016-11-17T04:22:54.813Z,7.18
2016-11-17T04:24:05.086Z,7.16
2016-11-17T04:25:15.056Z,7.19
2016-11-17T04:26:25.356Z,7.13
2016-11-17T04:27:35.651Z,7.15
2016-11-17T04:28:45.937Z,7.18
2016-11-17T04:29:55.914Z,7.18
2016-11-17T04:31:05.921Z,7.04
2016-11-17T04:33:40.484Z,7.11
2016-11-17T04:34:50.147Z,7.08
2016-11-17T04:36:00.414Z,7.09
2016-11-17T04:37:10.701Z,7.11
2016-11-17T04:38:20.721Z,7.09
2016-11-17T04:39:30.688Z,7.11
2016-11-17T04:40:40.661Z,7.16
2016-11-17T04:41:50.938Z,7.19
2016-11-17T04:43:01.233Z,7.15
2016-11-17T04:44:10.586Z,7.22
2016-11-17T04:45:20.857Z,7.19
2016-11-17T04:46:30.821Z,7.3
2016-11-17T04:47:40.790Z,7.27
2016-11-17T04:48:51.120Z,7.27
2016-11-17T04:50:01.087Z,7.22
2016-11-17T04:51:11.046Z,7.26
2016-11-17T04:52:21.094Z,7.27
2016-11-17T04:53:31.375Z,7.37
2016-11-17T04:54:41.647Z,7.34
2016-11-17T04:55:51.308Z,7.39
2016-11-17T04:57:01.587Z,7.34
2016-11-17T04:58:11.859Z,7.36
2016-11-17T04:59:22.153Z,7.31
2016-11-17T05:00:31.811Z,7.39
2016-11-17T05:01:42.083Z,7.47
2016-11-17T05:02:52.366Z,7.48
2016-11-17T05:04:02.030Z,7.37
2016-11-17T05:05:12.038Z,7.45
2016-11-17T05:06:22.348Z,7.44
2016-11-17T05:07:32.625Z,7.36
2016-11-17T05:08:42.908Z,7.36
2016-11-17T05:09:52.561Z,7.45
2016-11-17T05:11:02.842Z,7.39
2016-11-17T05:12:13.137Z,7.48
2016-11-17T05:13:23.131Z,7.45
2016-11-17T05:14:33.101Z,7.52
2016-11-17T05:15:43.084Z,7.47
2016-11-17T05:16:52.732Z,7.52
2016-11-17T05:18:02.408Z,7.52
2016-11-17T05:19:12.689Z,7.59
2016-11-17T05:20:22.674Z,7.55
2016-11-17T05:21:32.652Z,7.55
2016-11-17T05:22:42.924Z,7.45
2016-11-17T05:23:52.906Z,7.47
2016-11-17T05:25:03.238Z,7.48
2016-11-17T05:26:12.899Z,7.44
2016-11-17T05:27:22.900Z,7.44
2016-11-17T05:28:31.963Z,7.48
2016-11-17T05:29:41.936Z,7.47
2016-11-17T05:30:51.896Z,7.47
2016-11-17T05:32:02.173Z,7.55
2016-11-17T05:33:11.844Z,7.44
2016-11-17T05:34:21.505Z,7.48
2016-11-17T05:35:31.780Z,7.54
2016-11-17T05:36:42.080Z,7.54
2016-11-17T05:37:52.076Z,7.47
2016-11-17T05:39:02.353Z,7.51
2016-11-17T05:40:12.564Z,7.58
2016-11-17T05:41:22.849Z,7.45
2016-11-17T05:42:33.123Z,7.54
2016-11-17T05:43:43.101Z,7.58
2016-11-17T05:44:53.083Z,7.54
2016-11-17T05:46:03.060Z,7.54
2016-11-17T05:47:13.035Z,7.56
2016-11-17T05:48:23.027Z,7.58
2016-11-17T05:49:32.409Z,7.54
2016-11-17T05:50:42.385Z,7.52
2016-11-17T05:51:52.667Z,7.54
2016-11-17T05:53:02.659Z,7.61
2016-11-17T05:54:12.951Z,7.61
2016-11-17T05:55:23.240Z,7.58
2016-11-17T05:56:33.217Z,7.59
2016-11-17T05:57:43.186Z,7.67
2016-11-17T05:58:53.459Z,7.63
2016-11-17T06:00:03.749Z,7.64
2016-11-17T06:01:13.712Z,7.7
2016-11-17T06:02:23.683Z,7.68
2016-11-17T06:03:33.656Z,7.59
2016-11-17T06:04:43.319Z,7.56
2016-11-17T06:05:53.648Z,7.59
2016-11-17T06:07:03.619Z,7.55
2016-11-17T06:08:13.587Z,7.64
2016-11-17T06:09:23.249Z,7.52
2016-11-17T06:10:33.536Z,7.51
2016-11-17T06:11:43.536Z,7.56
2016-11-17T06:12:53.499Z,7.58
2016-11-17T06:14:03.778Z,7.58
2016-11-17T06:15:13.742Z,7.48
2016-11-17T06:16:23.406Z,7.58
2016-11-17T06:17:33.366Z,7.52
2016-11-17T06:18:43.653Z,7.58
2016-11-17T06:19:53.929Z,7.51
2016-11-17T06:21:03.912Z,7.55
2016-11-17T06:22:13.330Z,7.63
2016-11-17T06:23:23.343Z,7.56
2016-11-17T06:24:33.320Z,7.67
2016-11-17T06:25:43.605Z,7.59
2016-11-17T06:26:53.870Z,7.56
2016-11-17T06:28:03.530Z,7.64
2016-11-17T06:29:13.553Z,7.73
2016-11-17T06:30:23.255Z,7.64
2016-11-17T06:31:32.926Z,7.64
2016-11-17T06:32:43.208Z,7.63
2016-11-17T06:33:53.175Z,7.73
2016-11-17T06:35:03.457Z,7.7
2016-11-17T06:36:13.433Z,7.74
2016-11-17T06:37:23.716Z,7.63
2016-11-17T06:38:33.692Z,7.67
2016-11-17T06:39:43.968Z,7.64
2016-11-17T06:40:54.245Z,7.58
2016-11-17T06:42:04.531Z,7.61
2016-11-17T06:43:14.795Z,7.61
2016-11-17T06:44:25.072Z,7.63
2016-11-17T06:45:34.452Z,7.68
2016-11-17T06:46:44.744Z,7.64
2016-11-17T06:47:54.722Z,7.68
2016-11-17T06:49:04.992Z,7.71
2016-11-17T06:50:14.950Z,7.74
2016-11-17T06:51:25.252Z,7.86
2016-11-17T06:52:35.564Z,7.78
2016-11-17T06:53:45.260Z,7.78
2016-11-17T06:54:55.591Z,7.88
2016-11-17T06:56:05.563Z,7.78
2016-11-17T06:57:15.873Z,7.83
2016-11-17T06:58:25.842Z,7.89
2016-11-17T06:59:35.828Z,7.88
2016-11-17T07:00:46.113Z,7.82
2016-11-17T07:01:55.770Z,7.88
2016-11-17T07:03:06.042Z,7.92
2016-11-17T07:04:16.052Z,7.89
2016-11-17T07:05:26.055Z,7.86
2016-11-17T07:06:36.326Z,7.95
2016-11-17T07:07:46.295Z,8.01
2016-11-17T07:08:56.272Z,7.96
2016-11-17T07:10:06.587Z,7.96
2016-11-17T07:11:16.555Z,8.06
2016-11-17T07:12:26.839Z,8.13
2016-11-17T07:13:37.133Z,8.04
2016-11-17T07:14:47.105Z,7.96
2016-11-17T07:15:57.374Z,8.01
2016-11-17T07:17:07.666Z,8.06
2016-11-17T07:18:17.657Z,7.96
2016-11-17T07:19:27.925Z,8.01
2016-11-17T07:20:38.212Z,7.95
2016-11-17T07:21:47.873Z,7.93
2016-11-17T07:22:58.137Z,8.01
2016-11-17T07:24:08.111Z,7.99
2016-11-17T07:25:17.772Z,7.98
2016-11-17T07:26:28.060Z,8.11
2016-11-17T07:27:38.352Z,8.24
2016-11-17T07:28:48.317Z,8.19
2016-11-17T07:29:57.669Z,8.22
2016-11-17T07:31:07.962Z,8.25
2016-11-17T07:32:18.247Z,8.39
2016-11-17T07:33:28.229Z,8.5
2016-11-17T07:34:38.531Z,8.52
2016-11-17T07:35:48.832Z,8.54
2016-11-17T07:36:59.110Z,8.46
2016-11-17T07:38:08.770Z,8.6
2016-11-17T07:39:18.818Z,8.4
2016-11-17T07:40:28.787Z,8.46
2016-11-17T07:41:38.785Z,8.36
2016-11-17T07:42:48.757Z,8.35
2016-11-17T07:43:59.041Z,8.39
2016-11-17T07:45:09.051Z,8.4
2016-11-17T07:46:19.013Z,8.44
2016-11-17T07:47:29.336Z,8.5
2016-11-17T07:48:39.300Z,8.49
2016-11-17T07:49:49.572Z,8.46
2016-11-17T07:50:59.251Z,8.61
2016-11-17T07:52:09.269Z,8.58
2016-11-17T07:53:19.253Z,8.57
2016-11-17T07:54:29.222Z,8.57
2016-11-17T07:55:39.522Z,8.61
2016-11-17T07:56:49.513Z,8.6
2016-11-17T07:57:59.480Z,8.54
2016-11-17T07:59:09.776Z,8.57
2016-11-17T08:00:19.750Z,8.64
2016-11-17T08:01:30.025Z,8.71
2016-11-17T08:02:40.006Z,8.69
2016-11-17T08:03:50.289Z,8.65
2016-11-17T08:05:00.300Z,8.67
2016-11-17T08:06:09.666Z,8.72
2016-11-17T08:07:19.944Z,8.68
2016-11-17T08:08:29.634Z,8.61
2016-11-17T08:09:39.918Z,8.67
2016-11-17T08:10:50.238Z,8.72
2016-11-17T08:12:00.533Z,8.72
2016-11-17T08:13:09.891Z,8.72
2016-11-17T08:14:19.864Z,8.67
2016-11-17T08:15:29.830Z,8.71
2016-11-17T08:16:39.796Z,8.77
2016-11-17T08:17:49.758Z,8.67
2016-11-17T08:19:00.030Z,8.72
2016-11-17T08:20:10.033Z,8.67
2016-11-17T08:21:19.998Z,8.74
2016-11-17T08:22:30.294Z,8.76
2016-11-17T08:23:39.646Z,8.83
2016-11-17T08:24:49.916Z,8.83
2016-11-17T08:26:00.200Z,8.86
2016-11-17T08:27:09.861Z,8.86
2016-11-17T08:28:19.514Z,8.98
2016-11-17T08:29:29.791Z,8.9
2016-11-17T08:30:40.067Z,8.97
2016-11-17T08:31:49.733Z,9.17
2016-11-17T08:33:00.032Z,9.16
2016-11-17T08:34:10.011Z,9.27
2016-11-17T08:35:20.302Z,9.29
2016-11-17T08:36:30.581Z,9.32
2016-11-17T08:37:40.860Z,9.29
2016-11-17T08:38:51.170Z,9.32
2016-11-17T08:40:01.493Z,9.27
2016-11-17T08:41:11.773Z,9.23
2016-11-17T08:42:22.059Z,9.23
2016-11-17T08:43:32.348Z,9.24
2016-11-17T08:44:42.307Z,9.24
2016-11-17T08:45:52.335Z,9.2
2016-11-17T08:47:02.608Z,9.21
2016-11-17T08:48:12.901Z,9.2
2016-11-17T08:49:23.222Z,9.17
2016-11-17T08:50:32.892Z,9.2
2016-11-17T08:51:43.177Z,9.23
2016-11-17T08:52:53.169Z,9.23
2016-11-17T08:54:03.135Z,9.23
2016-11-17T08:55:13.434Z,9.2
2016-11-17T08:56:23.496Z,9.17
2016-11-17T08:57:33.777Z,9.24
2016-11-17T08:58:43.439Z,9.21
2016-11-17T08:59:53.420Z,9.3
2016-11-17T09:01:03.382Z,9.23
2016-11-17T09:02:13.708Z,9.19
2016-11-17T09:03:23.982Z,9.24
2016-11-17T09:04:34.222Z,9.26
2016-11-17T09:05:43.929Z,9.27
2016-11-17T09:06:53.635Z,9.23
2016-11-17T09:08:03.917Z,9.19
2016-11-17T09:09:12.959Z,9.2
2016-11-17T09:10:22.959Z,9.27
2016-11-17T09:11:33.232Z,9.3
2016-11-17T09:12:43.241Z,9.3
2016-11-17T09:13:53.219Z,9.26
2016-11-17T09:15:03.494Z,9.38
2016-11-17T09:16:13.460Z,9.21
2016-11-17T09:17:23.739Z,9.32
2016-11-17T09:18:34.011Z,9.37
2016-11-17T09:19:43.698Z,9.52
2016-11-17T09:20:53.708Z,9.56
2016-11-17T09:22:03.686Z,9.5
2016-11-17T09:23:13.659Z,9.6
2016-11-17T09:24:23.941Z,9.64
2016-11-17T09:25:34.228Z,9.72
2016-11-17T09:26:44.505Z,9.78
2016-11-17T09:27:54.478Z,9.84
2016-11-17T09:29:04.751Z,9.85
2016-11-17T09:30:15.077Z,9.84
2016-11-17T09:31:25.364Z,10.05
2016-11-17T09:32:35.347Z,10.15
2016-11-17T09:33:45.337Z,10.2
2016-11-17T09:34:55.630Z,10.21
2016-11-17T09:36:05.917Z,10.23
2016-11-17T09:37:16.402Z,10.26
2016-11-17T09:38:26.399Z,10.31
2016-11-17T09:39:36.408Z,10.31
2016-11-17T09:40:46.764Z,10.18
2016-11-17T09:41:56.437Z,10.25
2016-11-17T09:43:06.467Z,10.2
2016-11-17T09:44:16.765Z,10.11
2016-11-17T09:45:27.062Z,10.15
2016-11-17T09:46:37.371Z,10.13
2016-11-17T09:47:47.433Z,10
2016-11-17T09:48:57.760Z,10.08
2016-11-17T09:50:07.741Z,10.03
2016-11-17T09:51:17.528Z,10.03
2016-11-17T09:52:27.902Z,10.11
2016-11-17T09:53:38.220Z,10.25
2016-11-17T09:54:48.562Z,10.25
2016-11-17T09:55:58.856Z,10.31
2016-11-17T09:57:09.192Z,10.26
2016-11-17T09:58:19.883Z,10.31
2016-11-17T09:59:30.287Z,10.25
2016-11-17T10:00:40.610Z,10.23
2016-11-17T10:01:50.309Z,10.36
2016-11-17T10:03:00.625Z,10.36
2016-11-17T10:04:10.605Z,10.36
2016-11-17T10:05:20.941Z,10.39
2016-11-17T10:06:30.946Z,10.49
2016-11-17T10:07:40.947Z,10.57
2016-11-17T10:08:51.255Z,10.39
2016-11-17T10:10:01.241Z,10.42
2016-11-17T10:11:11.276Z,10.36
2016-11-17T10:12:21.272Z,10.33
2016-11-17T10:13:31.572Z,10.33
2016-11-17T10:14:41.541Z,10.2
2016-11-17T10:15:51.824Z,10.25
2016-11-17T10:17:01.505Z,10.18
2016-11-17T10:18:11.509Z,10.28
2016-11-17T10:19:21.482Z,10.17
2016-11-17T10:20:31.491Z,9.99
2016-11-17T10:21:41.789Z,10.07
2016-11-17T10:22:51.785Z,10
2016-11-17T10:24:01.777Z,9.9
2016-11-17T10:25:11.761Z,9.96
2016-11-17T10:26:22.071Z,9.96
2016-11-17T10:27:31.443Z,9.92
2016-11-17T10:28:41.560Z,9.82
2016-11-17T10:29:51.240Z,9.84
2016-11-17T10:31:01.524Z,9.85
2016-11-17T10:32:11.219Z,9.82
2016-11-17T10:33:21.228Z,9.77
2016-11-17T10:34:31.234Z,9.78
2016-11-17T10:35:41.216Z,9.7
2016-11-17T10:36:51.193Z,9.6
2016-11-17T10:38:01.468Z,9.53
2016-11-17T10:39:11.793Z,9.48
2016-11-17T10:40:21.770Z,9.5
2016-11-17T10:41:32.071Z,9.56
2016-11-17T10:42:42.075Z,9.47
2016-11-17T10:43:52.066Z,9.48
2016-11-17T10:45:02.358Z,9.44
2016-11-17T10:46:12.700Z,9.44
2016-11-17T10:47:23.034Z,9.52
2016-11-17T10:48:33.313Z,9.53
2016-11-17T10:49:43.048Z,9.45
2016-11-17T10:50:53.047Z,9.56
2016-11-17T10:52:02.750Z,9.55
2016-11-17T10:53:12.735Z,9.55
2016-11-17T10:54:22.421Z,9.62
2016-11-17T10:55:32.399Z,9.56
2016-11-17T10:56:42.691Z,9.6
2016-11-17T10:57:52.370Z,9.64
2016-11-17T10:59:02.100Z,9.55
2016-11-17T11:00:12.093Z,9.6
2016-11-17T11:01:22.363Z,9.57
2016-11-17T11:02:32.676Z,9.59
2016-11-17T11:03:43.032Z,9.48
2016-11-17T11:04:53.312Z,9.6
2016-11-17T11:06:03.618Z,9.55
2016-11-17T11:07:13.610Z,9.55
2016-11-17T11:08:23.921Z,9.48
2016-11-17T11:09:34.218Z,9.6
2016-11-17T11:10:44.203Z,9.62
2016-11-17T11:11:54.190Z,9.63
2016-11-17T11:13:03.849Z,9.64
2016-11-17T11:14:13.848Z,9.71
2016-11-17T11:15:23.828Z,9.85
2016-11-17T11:16:33.179Z,9.82
2016-11-17T11:17:43.154Z,9.85
2016-11-17T11:18:52.833Z,9.84
2016-11-17T11:20:02.503Z,9.89
2016-11-17T11:21:12.228Z,9.84
2016-11-17T11:22:22.554Z,10
2016-11-17T11:23:32.560Z,10.03
2016-11-17T11:24:42.847Z,10.03
2016-11-17T11:25:52.446Z,10.11
2016-11-17T11:27:02.416Z,10.13
2016-11-17T11:28:12.097Z,10.14
2016-11-17T11:29:22.080Z,10.14
2016-11-17T11:30:32.358Z,10.17
2016-11-17T11:31:42.649Z,10.31
2016-11-17T11:32:52.935Z,10.41
2016-11-17T11:34:02.624Z,10.33
2016-11-17T11:35:12.903Z,10.42
2016-11-17T11:36:22.875Z,10.36
2016-11-17T11:37:32.868Z,10.52
2016-11-17T11:38:42.591Z,10.54
2016-11-17T11:39:52.897Z,10.41
2016-11-17T11:41:03.104Z,10.52
2016-11-17T11:42:13.397Z,10.49
2016-11-17T11:43:22.750Z,10.61
2016-11-17T11:44:32.728Z,10.58
2016-11-17T11:45:43.019Z,10.69
2016-11-17T11:46:53.453Z,10.76
2016-11-17T11:48:03.737Z,10.77
2016-11-17T11:49:14.050Z,10.84
2016-11-17T11:50:24.348Z,10.95
2016-11-17T11:51:34.649Z,10.97
2016-11-17T11:52:44.637Z,11.02
2016-11-17T11:53:54.941Z,11
2016-11-17T11:55:05.339Z,11.02
2016-11-17T11:56:15.332Z,10.98
2016-11-17T11:57:25.308Z,10.95
2016-11-17T11:58:35.599Z,10.92
2016-11-17T11:59:45.591Z,10.88
2016-11-17T12:00:55.639Z,10.87
2016-11-17T12:02:05.344Z,10.84
2016-11-17T12:03:15.637Z,10.88
2016-11-17T12:04:25.923Z,10.83
2016-11-17T12:05:36.230Z,10.85
2016-11-17T12:06:45.897Z,10.98
2016-11-17T12:07:55.917Z,10.97
2016-11-17T12:09:05.916Z,10.92
2016-11-17T12:10:15.878Z,10.8
2016-11-17T12:11:25.871Z,10.84
2016-11-17T12:12:35.837Z,10.77
2016-11-17T12:13:45.513Z,10.8
2016-11-17T12:14:55.230Z,10.7
2016-11-17T12:16:05.554Z,10.69
2016-11-17T12:17:15.877Z,10.65
2016-11-17T12:18:25.882Z,10.65
2016-11-17T12:19:35.954Z,10.69
2016-11-17T12:20:46.267Z,10.67
2016-11-17T12:21:56.240Z,10.66
2016-11-17T12:23:06.550Z,10.65
2016-11-17T12:24:16.536Z,10.67
2016-11-17T12:25:26.543Z,10.65
2016-11-17T12:26:36.826Z,10.58
2016-11-17T12:27:46.497Z,10.47
2016-11-17T12:28:56.781Z,10.49
2016-11-17T12:30:06.789Z,10.38
2016-11-17T12:31:16.524Z,10.44
2016-11-17T12:32:26.519Z,10.36
2016-11-17T12:33:36.812Z,10.38
2016-11-17T12:34:46.805Z,10.38
2016-11-17T12:35:57.080Z,10.39
2016-11-17T12:37:06.811Z,10.38
2016-11-17T12:38:16.779Z,10.44
2016-11-17T12:39:26.465Z,10.51
2016-11-17T12:40:36.749Z,10.46
2016-11-17T12:41:46.431Z,10.52
2016-11-17T12:42:56.758Z,10.52
2016-11-17T12:44:06.482Z,10.38
2016-11-17T12:45:16.771Z,10.36
2016-11-17T12:46:26.454Z,10.36
2016-11-17T12:47:36.749Z,10.38
2016-11-17T12:48:47.045Z,10.29
2016-11-17T12:49:56.725Z,10.29
2016-11-17T12:51:07.012Z,10.33
2016-11-17T12:52:17.372Z,10.31
2016-11-17T12:53:27.670Z,10.25
2016-11-17T12:54:37.635Z,10.23
2016-11-17T12:55:47.633Z,10.26
2016-11-17T12:56:57.909Z,10.25
2016-11-17T12:58:08.220Z,10.25
2016-11-17T12:59:18.510Z,10.2
2016-11-17T13:00:28.859Z,10.15
2016-11-17T13:01:39.148Z,10.14
2016-11-17T13:02:49.136Z,10.13
2016-11-17T13:03:59.127Z,10.11
2016-11-17T13:05:09.429Z,10.17
2016-11-17T13:06:19.428Z,10.23
2016-11-17T13:07:29.098Z,10.18
2016-11-17T13:08:39.080Z,10.08
2016-11-17T13:09:49.372Z,10.03
2016-11-17T13:10:59.361Z,9.95
2016-11-17T13:12:09.387Z,9.9
2016-11-17T13:13:19.362Z,9.82
2016-11-17T13:14:29.363Z,9.82
2016-11-17T13:15:39.356Z,9.95
2016-11-17T13:16:49.657Z,9.95
2016-11-17T13:17:59.688Z,9.93
2016-11-17T13:19:09.360Z,9.93
2016-11-17T13:20:19.335Z,9.96
2016-11-17T13:21:29.331Z,10.02
2016-11-17T13:22:39.652Z,10
2016-11-17T13:23:49.971Z,10.05
2016-11-17T13:25:00.288Z,10.11
2016-11-17T13:26:10.613Z,10.15
2016-11-17T13:27:20.902Z,10.17
2016-11-17T13:28:30.898Z,10.13
2016-11-17T13:29:41.201Z,10.13
2016-11-17T13:30:51.202Z,10.08
2016-11-17T13:32:01.475Z,10.11
2016-11-17T13:33:11.447Z,10.05
2016-11-17T13:34:21.751Z,9.9
2016-11-17T13:35:32.052Z,9.93
2016-11-17T13:36:42.357Z,9.82
2016-11-17T13:37:52.322Z,9.84
2016-11-17T13:39:02.023Z,9.89
2016-11-17T13:40:12.319Z,9.82
2016-11-17T13:41:22.663Z,9.77
2016-11-17T13:42:32.653Z,9.84
2016-11-17T13:43:42.955Z,9.81
2016-11-17T13:44:53.265Z,9.84
2016-11-17T13:46:03.579Z,9.84
2016-11-17T13:47:13.559Z,9.8
2016-11-17T13:48:23.865Z,9.85
2016-11-17T13:49:33.856Z,9.84
2016-11-17T13:50:44.155Z,9.84
2016-11-17T13:51:54.460Z,9.84
2016-11-17T13:53:04.815Z,9.88
2016-11-17T13:54:15.121Z,9.81
2016-11-17T13:55:25.107Z,9.75
2016-11-17T13:56:35.104Z,9.74
2016-11-17T13:57:44.779Z,9.74
2016-11-17T13:58:54.461Z,9.88
2016-11-17T14:00:04.781Z,9.78
2016-11-17T14:01:14.775Z,9.75
2016-11-17T14:02:25.077Z,9.71
2016-11-17T14:03:34.818Z,9.74
2016-11-17T14:04:44.895Z,9.77
2016-11-17T14:05:55.212Z,9.78
2016-11-17T14:07:05.203Z,9.75
2016-11-17T14:08:15.505Z,9.67
2016-11-17T14:09:25.501Z,9.62
2016-11-17T14:10:35.500Z,9.64
2016-11-17T14:11:45.480Z,9.7
2016-11-17T14:12:55.500Z,9.63
2016-11-17T14:14:05.512Z,9.57
2016-11-17T14:15:15.819Z,9.55
2016-11-17T14:16:25.803Z,9.53
2016-11-17T14:17:35.797Z,9.52
2016-11-17T14:18:46.116Z,9.52
2016-11-17T14:19:55.815Z,9.48
2016-11-17T14:21:05.843Z,9.52
2016-11-17T14:22:15.853Z,9.57
2016-11-17T14:23:25.830Z,9.56
2016-11-17T14:24:36.164Z,9.48
2016-11-17T14:25:46.166Z,9.56
2016-11-17T14:26:55.844Z,9.52
2016-11-17T14:28:05.850Z,9.55
2016-11-17T14:29:15.883Z,9.63
2016-11-17T14:30:26.193Z,9.6
2016-11-17T14:31:36.162Z,9.56
2016-11-17T14:32:46.123Z,9.6
2016-11-17T14:33:56.108Z,9.63
2016-11-17T14:35:06.112Z,9.57
2016-11-17T14:36:16.111Z,9.64
2016-11-17T14:37:26.123Z,9.64
2016-11-17T14:38:36.114Z,9.7
2016-11-17T14:39:46.451Z,9.6
2016-11-17T14:40:56.444Z,9.52
2016-11-17T14:42:06.752Z,9.6
2016-11-17T14:43:16.741Z,9.6
2016-11-17T14:44:26.746Z,9.57
2016-11-17T14:45:37.051Z,9.5
2016-11-17T14:46:47.387Z,9.6
2016-11-17T14:47:57.377Z,9.53
2016-11-17T14:49:07.057Z,9.63
2016-11-17T14:50:17.342Z,9.62
2016-11-17T14:51:27.700Z,9.63
2016-11-17T14:52:37.083Z,9.57
2016-11-17T14:53:46.795Z,9.57
2016-11-17T14:54:57.099Z,9.7
2016-11-17T14:56:07.114Z,9.64
2016-11-17T14:57:17.458Z,9.6
2016-11-17T14:58:27.744Z,9.63
2016-11-17T14:59:38.093Z,9.64
2016-11-17T15:00:47.784Z,9.63
2016-11-17T15:01:57.774Z,9.64
2016-11-17T15:03:07.809Z,9.64
2016-11-17T15:04:17.814Z,9.64
2016-11-17T15:05:28.113Z,9.62
2016-11-17T15:06:38.423Z,9.57
2016-11-17T15:07:48.410Z,9.62
2016-11-17T15:08:58.697Z,9.55
2016-11-17T15:10:09.004Z,9.56
2016-11-17T15:11:18.384Z,9.55
2016-11-17T15:12:28.680Z,9.48
2016-11-17T15:13:38.981Z,9.57
2016-11-17T15:14:48.981Z,9.48
2016-11-17T15:15:58.964Z,9.52
2016-11-17T15:17:08.947Z,9.55
2016-11-17T15:18:18.638Z,9.53
2016-11-17T15:19:28.933Z,9.48
2016-11-17T15:20:38.919Z,9.56
2016-11-17T15:21:48.906Z,9.5
2016-11-17T15:22:58.891Z,9.42
2016-11-17T15:24:08.907Z,9.44
2016-11-17T15:25:18.913Z,9.48
2016-11-17T15:26:29.224Z,9.48
2016-11-17T15:27:39.530Z,9.44
2016-11-17T15:28:49.527Z,9.45
2016-11-17T15:29:59.841Z,9.41
2016-11-17T15:31:10.142Z,9.39
2016-11-17T15:32:20.459Z,9.47
2016-11-17T15:33:30.153Z,9.44
2016-11-17T15:34:39.834Z,9.45
2016-11-17T15:35:49.827Z,9.3
2016-11-17T15:36:59.809Z,9.29
2016-11-17T15:38:09.805Z,9.3
2016-11-17T15:39:20.129Z,9.24
2016-11-17T15:40:30.430Z,9.34
2016-11-17T15:41:40.715Z,9.32
2016-11-17T15:42:51.018Z,9.38
2016-11-17T15:44:01.329Z,9.34
2016-11-17T15:45:11.631Z,9.38
2016-11-17T15:46:21.607Z,9.32
2016-11-17T15:47:31.317Z,9.34
2016-11-17T15:48:41.651Z,9.44
2016-11-17T15:49:51.946Z,9.44
2016-11-17T15:51:01.945Z,9.42
2016-11-17T15:52:11.925Z,9.42
2016-11-17T15:53:21.912Z,9.39
2016-11-17T15:54:32.202Z,9.55
2016-11-17T15:55:42.506Z,9.5
2016-11-17T15:56:52.192Z,9.55
2016-11-17T15:58:02.160Z,9.55
2016-11-17T15:59:12.694Z,9.55
2016-11-17T16:00:22.650Z,9.59
2016-11-17T16:01:32.682Z,9.53
2016-11-17T16:02:42.979Z,9.63
2016-11-17T16:03:52.958Z,9.6